Time;durP1;ratioP1;P1;durP2;ratioP2;P2;SDS_P1;SDS_P2;PMS_P1;PMS_P2;Temp;Humidity;BMP_temperature;BMP_pressure;BME280_temperature;BME280_humidity;BME280_pressure;Samples;Min_cycle;Max_cycle;Signal;HPM_P1;HPM_P2
2020/12/01 00:00:54;;;;;;;48.87;33.07;;;7.20;99.90;;;;;;5069343;28;20203;-78
2020/12/01 00:03:21;;;;;;;48.50;31.90;;;7.30;99.90;;;;;;5080653;28;20254;-78
2020/12/01 00:05:47;;;;;;;47.77;31.70;;;7.30;99.90;;;;;;5074820;28;20205;-78
2020/12/01 00:08:13;;;;;;;48.73;31.47;;;7.30;99.90;;;;;;5074880;28;20207;-78
2020/12/01 00:10:40;;;;;;;47.40;30.97;;;7.40;99.90;;;;;;5085192;28;20251;-78
2020/12/01 00:13:07;;;;;;;45.73;31.20;;;7.40;99.90;;;;;;5078175;28;20192;-78
2020/12/01 00:15:34;;;;;;;45.17;30.67;;;7.50;99.90;;;;;;5094638;28;20959;-78
2020/12/01 00:18:01;;;;;;;43.33;30.20;;;7.50;99.90;;;;;;5074594;28;20206;-77
2020/12/01 00:20:27;;;;;;;41.10;29.50;;;7.60;99.90;;;;;;5073982;28;20632;-78
2020/12/01 00:22:55;;;;;;;49.30;29.67;;;7.60;99.90;;;;;;5088632;28;20199;-78
2020/12/01 00:25:23;;;;;;;44.97;29.93;;;7.70;99.90;;;;;;5084684;28;20196;-77
2020/12/01 00:27:49;;;;;;;44.10;29.20;;;7.80;99.90;;;;;;5081657;28;20229;-78
2020/12/01 00:30:18;;;;;;;45.50;29.43;;;7.80;99.90;;;;;;5071992;28;20222;-78
2020/12/01 00:32:46;;;;;;;42.00;27.27;;;7.80;99.90;;;;;;5080838;28;20196;-78
2020/12/01 00:35:15;;;;;;;47.23;27.67;;;7.90;99.90;;;;;;5073811;28;20755;-78
2020/12/01 00:37:42;;;;;;;42.00;26.40;;;7.90;99.90;;;;;;5074167;28;20226;-77
2020/12/01 00:40:09;;;;;;;38.13;25.63;;;8.00;99.90;;;;;;5074305;28;20207;-78
2020/12/01 00:42:36;;;;;;;41.07;25.63;;;8.00;99.90;;;;;;5073334;28;20206;-77
2020/12/01 00:45:03;;;;;;;40.50;25.67;;;8.10;99.90;;;;;;5073885;28;20206;-77
2020/12/01 00:47:29;;;;;;;42.70;26.57;;;8.10;99.90;;;;;;5093266;28;20207;-78
2020/12/01 00:49:57;;;;;;;42.30;25.73;;;8.20;99.90;;;;;;5087146;28;20657;-78
2020/12/01 00:52:24;;;;;;;40.17;25.37;;;8.20;99.90;;;;;;5077849;28;20201;-77
2020/12/01 00:54:50;;;;;;;38.83;24.10;;;8.20;99.90;;;;;;5092412;28;20287;-77
2020/12/01 00:57:17;;;;;;;36.53;23.37;;;8.30;99.90;;;;;;5074657;28;20206;-78
2020/12/01 00:59:44;;;;;;;34.30;21.50;;;8.30;99.90;;;;;;5073882;28;20276;-78
2020/12/01 01:02:10;;;;;;;38.27;22.50;;;8.40;99.90;;;;;;5080981;28;20194;-78
2020/12/01 01:04:37;;;;;;;38.90;21.43;;;8.50;99.90;;;;;;5071419;28;20205;-78
2020/12/01 01:07:05;;;;;;;33.27;20.53;;;8.50;99.90;;;;;;5072767;28;20206;-78
2020/12/01 01:09:31;;;;;;;36.17;20.70;;;8.60;99.90;;;;;;5054496;28;20740;-78
2020/12/01 01:11:57;;;;;;;34.70;21.53;;;8.60;99.90;;;;;;5086238;28;20224;-78
2020/12/01 01:14:24;;;;;;;33.60;20.30;;;8.70;99.90;;;;;;5093574;28;20201;-78
2020/12/01 01:16:50;;;;;;;35.33;20.77;;;8.70;99.90;;;;;;5092198;28;20261;-78
2020/12/01 01:19:17;;;;;;;35.63;19.70;;;8.70;99.90;;;;;;5093126;28;20199;-77
2020/12/01 01:21:45;;;;;;;28.73;18.53;;;8.70;99.90;;;;;;5093638;28;20252;-78
2020/12/01 01:24:14;;;;;;;31.93;19.00;;;8.70;99.90;;;;;;5093115;28;20198;-77
2020/12/01 01:26:41;;;;;;;30.97;19.10;;;8.80;99.90;;;;;;5081540;28;20220;-78
2020/12/01 01:29:07;;;;;;;28.90;17.60;;;8.80;99.90;;;;;;5072342;28;20202;-78
2020/12/01 01:31:34;;;;;;;28.23;17.80;;;8.80;99.90;;;;;;5065995;28;20272;-78
2020/12/01 01:34:00;;;;;;;28.77;17.27;;;8.90;99.90;;;;;;5071368;28;20222;-78
2020/12/01 01:36:33;;;;;;;27.87;18.13;;;8.90;99.90;;;;;;5072899;28;20260;-78
2020/12/01 01:39:00;;;;;;;27.90;17.67;;;8.90;99.90;;;;;;5084609;28;20248;-78
2020/12/01 01:41:30;;;;;;;26.13;18.10;;;8.90;99.90;;;;;;5092347;28;20202;-78
2020/12/01 01:43:57;;;;;;;29.50;17.80;;;8.90;99.90;;;;;;5079799;28;20207;-77
2020/12/01 01:46:37;;;;;;;29.70;17.53;;;9.00;99.90;;;;;;5074117;28;20252;-78
2020/12/01 01:49:06;;;;;;;30.50;18.30;;;9.00;99.90;;;;;;5070551;28;20234;-78
2020/12/01 01:51:36;;;;;;;26.00;17.63;;;9.00;99.90;;;;;;5071852;28;20229;-78
2020/12/01 01:54:03;;;;;;;32.20;18.17;;;9.00;99.90;;;;;;5067686;28;20210;-77
2020/12/01 01:56:38;;;;;;;28.67;16.20;;;9.10;99.90;;;;;;5070243;28;20202;-78
2020/12/01 01:59:05;;;;;;;27.07;16.47;;;9.00;99.90;;;;;;5093195;28;20198;-77
2020/12/01 02:01:32;;;;;;;27.93;15.90;;;9.10;99.90;;;;;;5087514;28;20197;-78
2020/12/01 02:04:00;;;;;;;26.33;14.23;;;9.10;99.90;;;;;;5074999;28;20621;-78
2020/12/01 02:06:34;;;;;;;23.90;13.20;;;9.20;99.90;;;;;;5052533;28;20244;-77
2020/12/01 02:09:03;;;;;;;21.97;12.97;;;9.20;99.90;;;;;;5067961;28;20199;-78
2020/12/01 02:11:32;;;;;;;22.30;12.80;;;9.30;99.90;;;;;;5072030;28;20227;-78
2020/12/01 02:14:06;;;;;;;26.73;13.43;;;9.30;99.90;;;;;;5072120;28;20206;-78
2020/12/01 02:16:33;;;;;;;24.33;12.67;;;9.40;99.90;;;;;;5078924;28;20205;-78
2020/12/01 02:18:59;;;;;;;24.03;12.90;;;9.30;99.90;;;;;;5092538;28;20197;-78
2020/12/01 02:21:33;;;;;;;20.53;11.93;;;9.40;99.90;;;;;;5082649;28;21868;-78
2020/12/01 02:24:02;;;;;;;21.03;12.30;;;9.40;99.90;;;;;;5087972;28;20202;-78
2020/12/01 02:26:30;;;;;;;24.20;12.30;;;9.40;99.90;;;;;;5082769;28;20357;-78
2020/12/01 02:28:57;;;;;;;23.83;12.40;;;9.40;99.90;;;;;;5080058;28;20198;-78
2020/12/01 02:31:24;;;;;;;23.73;12.47;;;9.40;99.90;;;;;;5058691;28;20579;-78
2020/12/01 02:33:51;;;;;;;22.13;11.07;;;9.40;99.90;;;;;;5071371;28;20743;-78
2020/12/01 02:36:18;;;;;;;21.70;12.00;;;9.40;99.90;;;;;;5072404;28;20237;-78
2020/12/01 02:38:45;;;;;;;19.20;11.70;;;9.40;99.90;;;;;;5085193;28;20248;-78
2020/12/01 02:41:11;;;;;;;19.17;11.80;;;9.40;99.90;;;;;;5085645;28;20201;-78
2020/12/01 02:43:38;;;;;;;18.67;11.63;;;9.40;99.90;;;;;;5090817;28;20259;-78
2020/12/01 02:46:05;;;;;;;20.13;11.50;;;9.50;99.90;;;;;;5089299;28;20196;-78
2020/12/01 02:48:31;;;;;;;16.83;10.60;;;9.50;99.90;;;;;;5085151;28;20296;-78
2020/12/01 02:50:58;;;;;;;16.83;10.93;;;9.50;99.90;;;;;;5062183;28;20453;-78
2020/12/01 02:53:24;;;;;;;18.40;10.50;;;9.50;99.90;;;;;;5071511;28;20662;-77
2020/12/01 02:55:51;;;;;;;14.27;9.43;;;9.50;99.90;;;;;;5071637;28;20257;-78
2020/12/01 02:58:17;;;;;;;15.77;9.80;;;9.50;99.90;;;;;;5072706;28;20229;-78
2020/12/01 03:00:45;;;;;;;13.17;8.37;;;9.50;99.90;;;;;;5071741;28;20199;-78
2020/12/01 03:03:12;;;;;;;13.13;7.87;;;9.50;99.90;;;;;;5071665;28;20824;-77
2020/12/01 03:05:38;;;;;;;12.43;7.73;;;9.50;99.90;;;;;;5071831;28;20256;-78
2020/12/01 03:08:05;;;;;;;11.83;7.67;;;9.50;99.90;;;;;;5065751;28;20777;-78
2020/12/01 03:10:32;;;;;;;13.07;6.70;;;9.60;99.90;;;;;;5091696;28;20230;-78
2020/12/01 03:12:58;;;;;;;11.50;6.40;;;9.60;99.90;;;;;;5086176;28;20201;-78
2020/12/01 03:15:25;;;;;;;9.57;5.90;;;9.60;99.90;;;;;;5071781;28;20264;-77
2020/12/01 03:17:52;;;;;;;7.63;5.40;;;9.70;99.90;;;;;;5071634;28;20684;-78
2020/12/01 03:20:18;;;;;;;6.63;5.23;;;9.70;99.90;;;;;;5071268;28;20585;-78
2020/12/01 03:22:45;;;;;;;9.13;5.57;;;9.70;99.90;;;;;;5072017;28;20536;-78
2020/12/01 03:25:11;;;;;;;8.17;5.30;;;9.60;99.90;;;;;;5075170;28;20191;-78
2020/12/01 03:27:38;;;;;;;9.77;5.87;;;9.70;99.90;;;;;;5079305;28;20610;-77
2020/12/01 03:30:06;;;;;;;8.40;5.10;;;9.70;99.90;;;;;;5084546;28;20250;-78
2020/12/01 03:32:33;;;;;;;7.03;5.00;;;9.70;99.90;;;;;;5070069;28;20633;-78
2020/12/01 03:35:01;;;;;;;9.13;5.20;;;9.70;99.90;;;;;;5072988;28;20633;-78
2020/12/01 03:37:27;;;;;;;8.10;5.07;;;9.70;99.90;;;;;;5070911;28;20256;-78
2020/12/01 03:39:54;;;;;;;10.60;5.27;;;9.80;99.90;;;;;;5071832;28;20195;-78
2020/12/01 03:42:20;;;;;;;9.23;5.40;;;9.80;99.90;;;;;;5075362;28;20199;-78
2020/12/01 03:44:47;;;;;;;7.53;4.67;;;9.80;99.90;;;;;;5090563;28;20206;-78
2020/12/01 03:47:13;;;;;;;7.40;4.73;;;9.90;99.90;;;;;;5077933;28;20207;-78
2020/12/01 03:49:40;;;;;;;9.20;5.50;;;9.90;99.90;;;;;;5070826;28;20231;-78
2020/12/01 03:52:07;;;;;;;8.67;5.33;;;9.90;99.90;;;;;;5069670;28;20250;-78
2020/12/01 03:54:34;;;;;;;12.57;4.80;;;9.90;99.90;;;;;;5091668;28;20209;-78
2020/12/01 03:57:00;;;;;;;9.33;4.30;;;9.90;99.90;;;;;;5080250;28;20203;-78
2020/12/01 03:59:27;;;;;;;9.67;4.37;;;9.90;99.90;;;;;;5094356;28;20502;-78
2020/12/01 04:01:53;;;;;;;6.20;4.00;;;9.90;99.90;;;;;;5084715;28;20193;-78
2020/12/01 04:04:20;;;;;;;9.37;3.77;;;10.00;99.90;;;;;;5074483;28;20207;-78
2020/12/01 04:06:46;;;;;;;8.57;3.57;;;10.00;99.90;;;;;;5074591;28;20288;-78
2020/12/01 04:09:14;;;;;;;9.63;3.40;;;10.00;99.90;;;;;;5074838;28;20603;-78
2020/12/01 04:11:41;;;;;;;9.17;3.70;;;10.00;99.90;;;;;;5074973;28;20223;-78
2020/12/01 04:14:07;;;;;;;8.57;3.97;;;10.00;99.90;;;;;;5075168;28;20206;-78
2020/12/01 04:16:33;;;;;;;10.43;3.40;;;10.00;99.90;;;;;;5084086;28;20688;-78
2020/12/01 04:19:00;;;;;;;8.97;3.57;;;10.00;99.90;;;;;;5088622;28;20203;-78
2020/12/01 04:21:26;;;;;;;11.53;3.90;;;10.10;99.90;;;;;;5094608;28;20623;-78
2020/12/01 04:23:53;;;;;;;13.17;3.60;;;10.10;99.90;;;;;;5094938;28;20199;-78
2020/12/01 04:26:23;;;;;;;8.33;3.10;;;10.10;99.90;;;;;;5081887;28;20272;-78
2020/12/01 04:28:50;;;;;;;10.87;3.20;;;10.10;99.90;;;;;;5074390;28;20662;-78
2020/12/01 04:31:17;;;;;;;9.53;3.43;;;10.00;99.90;;;;;;5075713;28;20286;-78
2020/12/01 04:33:44;;;;;;;9.33;3.00;;;10.00;99.90;;;;;;5074285;28;20211;-78
2020/12/01 04:36:11;;;;;;;9.57;2.77;;;10.00;99.90;;;;;;5074335;28;20207;-78
2020/12/01 04:38:37;;;;;;;13.33;3.10;;;10.00;99.90;;;;;;5074365;28;20201;-78
2020/12/01 04:41:05;;;;;;;10.80;2.83;;;10.00;99.90;;;;;;5091868;28;20329;-78
2020/12/01 04:43:35;;;;;;;10.63;3.10;;;10.00;99.90;;;;;;5093757;28;20737;-78
2020/12/01 04:46:03;;;;;;;10.87;2.70;;;10.00;99.90;;;;;;5072516;28;20200;-78
2020/12/01 04:48:36;;;;;;;9.33;2.80;;;10.00;99.90;;;;;;5056717;28;20280;-78
2020/12/01 04:51:16;;;;;;;11.50;2.80;;;10.00;99.90;;;;;;5069202;28;20224;-78
2020/12/01 04:54:27;;;;;;;9.07;2.63;;;10.00;99.90;;;;;;5094038;28;20234;-78
2020/12/01 04:57:29;;;;;;;12.30;2.90;;;10.00;99.90;;;;;;5053729;28;20698;-78
2020/12/01 05:00:16;;;;;;;10.97;2.87;;;10.00;99.90;;;;;;5065991;28;20689;-78
2020/12/01 05:03:16;;;;;;;5.83;2.50;;;10.00;99.90;;;;;;5089596;28;20193;-78
2020/12/01 05:06:09;;;;;;;8.93;2.40;;;10.00;99.90;;;;;;5019720;28;20200;-78
2020/12/01 05:08:45;;;;;;;7.13;2.47;;;9.90;99.90;;;;;;5087664;28;20262;-78
2020/12/01 05:11:39;;;;;;;7.63;2.10;;;9.90;99.90;;;;;;5053831;28;20240;-78
2020/12/01 05:14:16;;;;;;;9.13;2.20;;;9.80;99.90;;;;;;5053918;28;20667;-77
2020/12/01 05:16:56;;;;;;;8.83;2.60;;;9.80;99.90;;;;;;5069674;28;20198;-78
2020/12/01 05:19:39;;;;;;;8.17;2.50;;;9.80;99.90;;;;;;5091618;28;20204;-78
2020/12/01 05:22:06;;;;;;;8.60;2.40;;;9.70;99.90;;;;;;5063156;28;20240;-78
2020/12/01 05:24:41;;;;;;;9.30;2.27;;;9.70;99.90;;;;;;5093636;28;20203;-78
2020/12/01 05:27:22;;;;;;;7.77;2.13;;;9.70;99.90;;;;;;5083846;28;20226;-78
2020/12/01 05:29:55;;;;;;;11.90;2.80;;;9.80;99.90;;;;;;5093862;28;20307;-78
2020/12/01 05:32:28;;;;;;;12.87;2.93;;;9.80;99.90;;;;;;5085369;28;20271;-78
2020/12/01 05:35:05;;;;;;;11.90;2.50;;;9.70;99.90;;;;;;5077472;28;20208;-78
2020/12/01 05:37:32;;;;;;;9.33;2.70;;;9.60;99.90;;;;;;5072201;28;20200;-78
2020/12/01 05:40:05;;;;;;;9.43;2.67;;;9.60;99.90;;;;;;5055919;28;20208;-78
2020/12/01 05:42:36;;;;;;;6.00;2.43;;;9.60;99.90;;;;;;5073367;28;20195;-78
2020/12/01 05:45:03;;;;;;;11.53;3.03;;;9.60;99.90;;;;;;5072857;28;20282;-78
2020/12/01 05:47:40;;;;;;;9.03;2.90;;;9.50;99.90;;;;;;5086658;28;20209;-78
2020/12/01 05:50:10;;;;;;;8.37;2.60;;;9.40;99.90;;;;;;5071956;28;20229;-78
2020/12/01 05:52:46;;;;;;;6.73;2.63;;;9.40;99.90;;;;;;5072809;28;20253;-77
2020/12/01 05:55:15;;;;;;;8.80;2.50;;;9.40;99.90;;;;;;5073009;28;20282;-77
2020/12/01 05:57:42;;;;;;;9.87;2.90;;;9.40;99.90;;;;;;5072679;28;20235;-77
2020/12/01 06:00:15;;;;;;;6.63;2.60;;;9.40;99.90;;;;;;5072625;28;20200;-77
2020/12/01 06:02:50;;;;;;;7.47;2.60;;;9.30;99.90;;;;;;5074239;28;20195;-78
2020/12/01 06:05:22;;;;;;;9.53;2.40;;;9.20;99.90;;;;;;5083827;28;20662;-77
2020/12/01 06:07:50;;;;;;;7.07;2.00;;;9.10;99.90;;;;;;5089731;28;20199;-78
2020/12/01 06:10:25;;;;;;;11.23;2.17;;;9.00;99.90;;;;;;5093195;28;20620;-77
2020/12/01 06:13:42;;;;;;;7.50;1.80;;;9.00;99.90;;;;;;5092434;28;20271;-78
2020/12/01 06:16:29;;;;;;;8.67;1.50;;;8.80;99.90;;;;;;5027897;28;20231;-78
2020/12/01 06:19:03;;;;;;;6.13;1.83;;;8.50;99.90;;;;;;5012723;28;20360;-77
2020/12/01 06:22:14;;;;;;;7.33;1.37;;;8.40;99.90;;;;;;4990526;28;20259;-77
2020/12/01 06:25:16;;;;;;;4.83;1.23;;;8.20;99.90;;;;;;4933195;29;20206;-77
2020/12/01 06:28:03;;;;;;;7.03;1.53;;;8.10;99.90;;;;;;4943945;28;20236;-77
2020/12/01 06:31:06;;;;;;;8.63;1.80;;;8.10;99.90;;;;;;4954770;28;20290;-78
2020/12/01 06:34:06;;;;;;;6.20;1.67;;;7.90;99.90;;;;;;4948795;29;20298;-76
2020/12/01 06:37:09;;;;;;;5.60;1.50;;;7.80;99.90;;;;;;4875253;29;20761;-76
2020/12/01 06:39:46;;;;;;;7.93;1.60;;;7.70;99.90;;;;;;4869417;29;20299;-76
2020/12/01 06:42:19;;;;;;;10.80;1.87;;;7.50;99.90;;;;;;4879582;29;20209;-77
2020/12/01 06:44:53;;;;;;;7.47;1.60;;;7.50;99.90;;;;;;4888457;29;20212;-77
2020/12/01 06:47:25;;;;;;;6.50;1.10;;;7.40;99.90;;;;;;4878117;29;20636;-78
2020/12/01 06:49:57;;;;;;;8.73;1.50;;;7.40;99.90;;;;;;4896961;29;20353;-76
2020/12/01 06:52:23;;;;;;;6.33;1.27;;;7.30;99.90;;;;;;4938305;29;20228;-77
2020/12/01 06:54:52;;;;;;;7.93;1.33;;;7.20;99.90;;;;;;4954982;28;20208;-77
2020/12/01 06:57:32;;;;;;;7.63;1.60;;;7.10;99.90;;;;;;4989307;28;20209;-76
2020/12/01 06:59:58;;;;;;;7.07;1.77;;;7.10;99.90;;;;;;5001044;28;20207;-77
2020/12/01 07:02:32;;;;;;;10.23;1.70;;;7.00;99.90;;;;;;5002760;28;20195;-77
2020/12/01 07:05:09;;;;;;;9.87;1.80;;;7.10;99.90;;;;;;4990275;28;20228;-77
2020/12/01 07:07:38;;;;;;;9.00;1.60;;;6.90;99.90;;;;;;5008227;28;20684;-77
2020/12/01 07:10:26;;;;;;;12.20;1.73;;;6.90;99.90;;;;;;4995220;28;20207;-77
2020/12/01 07:13:07;;;;;;;8.77;1.83;;;6.80;99.90;;;;;;5066426;28;20244;-77
2020/12/01 07:15:40;;;;;;;10.47;1.60;;;6.70;99.90;;;;;;5087884;28;20209;-77
2020/12/01 07:18:15;;;;;;;8.03;1.43;;;6.60;99.90;;;;;;5060715;28;20200;-77
2020/12/01 07:21:03;;;;;;;6.87;1.37;;;6.70;99.90;;;;;;5089302;28;20673;-77
2020/12/01 07:23:34;;;;;;;4.77;1.60;;;6.60;99.90;;;;;;5075316;28;20199;-77
2020/12/01 07:26:18;;;;;;;7.70;2.27;;;6.60;99.90;;;;;;5067297;28;20200;-77
2020/12/01 07:29:00;;;;;;;10.10;1.80;;;6.60;99.90;;;;;;5066320;28;20255;-77
2020/12/01 07:31:29;;;;;;;11.63;2.50;;;6.50;99.90;;;;;;5076574;28;20227;-77
2020/12/01 07:33:59;;;;;;;9.77;1.77;;;6.50;99.90;;;;;;5087637;28;20249;-77
2020/12/01 07:36:34;;;;;;;10.97;1.70;;;6.50;99.90;;;;;;5084053;28;20202;-77
2020/12/01 07:39:10;;;;;;;8.67;1.67;;;6.50;99.90;;;;;;5089057;28;20215;-77
2020/12/01 07:41:46;;;;;;;9.13;1.80;;;6.40;99.90;;;;;;5078702;28;20197;-77
2020/12/01 07:44:17;;;;;;;10.33;1.70;;;6.40;99.90;;;;;;5078475;28;20201;-77
2020/12/01 07:46:52;;;;;;;14.70;1.90;;;6.30;99.90;;;;;;5083928;28;20197;-77
2020/12/01 07:49:20;;;;;;;7.37;1.80;;;6.30;99.90;;;;;;5087047;28;20761;-76
2020/12/01 07:51:49;;;;;;;7.73;1.70;;;6.30;99.90;;;;;;5088693;28;20223;-77
2020/12/01 07:54:21;;;;;;;7.37;1.60;;;6.30;99.90;;;;;;5085480;28;21546;-77
2020/12/01 07:56:47;;;;;;;8.47;1.93;;;6.40;99.90;;;;;;5083620;28;20204;-77
2020/12/01 07:59:15;;;;;;;8.80;1.70;;;6.40;99.90;;;;;;5075343;28;20654;-77
2020/12/01 08:01:43;;;;;;;7.70;1.53;;;6.40;99.90;;;;;;5081357;28;20205;-77
2020/12/01 08:04:16;;;;;;;8.77;1.77;;;6.50;99.90;;;;;;5078871;28;20199;-77
2020/12/01 08:06:43;;;;;;;9.67;1.80;;;6.80;99.90;;;;;;5084472;28;20205;-77
2020/12/01 08:09:20;;;;;;;8.70;1.80;;;7.20;99.90;;;;;;5081056;28;20652;-77
2020/12/01 08:11:48;;;;;;;10.03;2.37;;;7.40;99.90;;;;;;5093260;28;20668;-77
2020/12/01 08:14:17;;;;;;;14.77;3.00;;;7.30;99.90;;;;;;5083123;28;20292;-77
2020/12/01 08:16:44;;;;;;;11.17;2.50;;;7.40;99.90;;;;;;5079075;28;20250;-77
2020/12/01 08:19:14;;;;;;;11.57;2.10;;;7.30;99.90;;;;;;5079957;28;20262;-77
2020/12/01 08:21:44;;;;;;;10.13;1.80;;;7.20;99.90;;;;;;5076417;28;20247;-77
2020/12/01 08:24:17;;;;;;;9.97;2.10;;;7.20;99.90;;;;;;5082345;28;20198;-77
2020/12/01 08:26:46;;;;;;;7.47;1.80;;;7.20;99.90;;;;;;5082986;28;20280;-77
2020/12/01 08:29:19;;;;;;;11.57;1.87;;;7.30;99.90;;;;;;5079767;28;20281;-77
2020/12/01 08:31:57;;;;;;;10.40;1.87;;;7.50;99.90;;;;;;5078103;28;20218;-78
2020/12/01 08:34:36;;;;;;;10.10;2.40;;;7.50;99.90;;;;;;5076185;28;20280;-77
2020/12/01 08:37:17;;;;;;;8.83;2.53;;;8.00;99.90;;;;;;5083344;28;20227;-79
2020/12/01 08:40:11;;;;;;;9.80;2.73;;;8.50;99.90;;;;;;5083547;28;20255;-79
2020/12/01 08:42:50;;;;;;;8.40;2.17;;;8.80;99.90;;;;;;5080668;28;20199;-79
2020/12/01 08:45:39;;;;;;;7.80;2.07;;;9.10;99.90;;;;;;5081943;28;20229;-79
2020/12/01 08:48:07;;;;;;;9.70;2.13;;;9.80;99.90;;;;;;5077843;28;20203;-79
2020/12/01 08:50:38;;;;;;;9.27;2.07;;;10.20;99.90;;;;;;5078020;28;20239;-79
2020/12/01 08:53:10;;;;;;;6.93;2.10;;;10.20;99.90;;;;;;5079047;28;20291;-79
2020/12/01 08:55:44;;;;;;;13.30;2.60;;;10.60;99.90;;;;;;5082573;28;20203;-79
2020/12/01 08:58:18;;;;;;;8.67;2.50;;;11.40;99.90;;;;;;5079994;28;20229;-80
2020/12/01 09:01:00;;;;;;;10.33;2.80;;;11.50;99.90;;;;;;5084819;28;20211;-78
2020/12/01 09:03:28;;;;;;;10.13;3.10;;;11.60;99.90;;;;;;5084745;28;20634;-78
2020/12/01 09:05:56;;;;;;;9.93;3.37;;;11.50;99.90;;;;;;5073498;28;20205;-78
2020/12/01 09:11:24;;;;;;;15.87;5.13;;;12.10;99.90;;;;;;5070534;28;20692;-78
2020/12/01 09:13:52;;;;;;;18.67;8.10;;;11.50;99.90;;;;;;5075406;28;20210;-78
2020/12/01 09:16:27;;;;;;;19.50;9.87;;;10.50;99.90;;;;;;5069205;28;20252;-78
2020/12/01 09:21:56;;;;;;;19.93;10.40;;;10.60;99.90;;;;;;5078201;28;20676;-78
2020/12/01 09:24:26;;;;;;;21.93;9.97;;;10.40;99.90;;;;;;5071022;28;20195;-78
2020/12/01 09:27:05;;;;;;;16.27;8.97;;;11.40;99.90;;;;;;5083003;28;20218;-78
2020/12/01 09:29:32;;;;;;;18.37;10.17;;;11.60;99.90;;;;;;5074085;28;20199;-78
2020/12/01 09:32:00;;;;;;;14.00;6.43;;;11.10;99.90;;;;;;5081785;28;20625;-78
2020/12/01 09:34:31;;;;;;;11.57;4.83;;;10.70;99.90;;;;;;5080274;28;20248;-78
2020/12/01 09:37:01;;;;;;;14.37;5.67;;;10.80;99.90;;;;;;5080117;28;20255;-78
2020/12/01 09:39:28;;;;;;;17.27;5.23;;;11.00;99.90;;;;;;5081139;28;20259;-78
2020/12/01 09:42:01;;;;;;;14.33;6.03;;;10.70;99.90;;;;;;5083336;28;20727;-78
2020/12/01 09:44:47;;;;;;;14.93;6.93;;;10.60;99.90;;;;;;5080539;28;20203;-77
2020/12/01 09:47:19;;;;;;;28.40;12.67;;;10.40;99.90;;;;;;5089027;28;20293;-77
2020/12/01 09:49:46;;;;;;;33.23;16.70;;;10.70;99.90;;;;;;5066237;28;20353;-77
2020/12/01 09:52:16;;;;;;;32.70;17.50;;;11.40;99.90;;;;;;5077908;28;20307;-78
2020/12/01 09:54:46;;;;;;;34.33;19.47;;;12.00;99.90;;;;;;5080217;28;20237;-78
2020/12/01 09:57:18;;;;;;;33.20;18.50;;;11.80;99.90;;;;;;5081341;28;20203;-79
2020/12/01 09:59:54;;;;;;;19.30;9.30;;;12.30;99.90;;;;;;5078112;28;20226;-78
2020/12/01 10:03:02;;;;;;;13.23;4.63;;;12.80;99.90;;;;;;5077396;28;20617;-79
2020/12/01 10:08:23;;;;;;;9.00;1.83;;;13.10;99.90;;;;;;5034364;28;20714;-78
2020/12/01 10:11:13;;;;;;;6.13;1.73;;;13.50;99.90;;;;;;5029829;28;20207;-78
2020/12/01 10:13:55;;;;;;;5.90;1.57;;;13.00;99.90;;;;;;5033154;28;20215;-78
2020/12/01 10:35:48;;;;;;;6.90;2.10;;;12.00;99.90;;;;;;5033021;28;20294;-78
2020/12/01 10:38:14;;;;;;;7.60;1.93;;;12.30;99.90;;;;;;5037570;28;20752;-78
2020/12/01 10:40:41;;;;;;;6.07;1.93;;;;;;;;;;5037397;28;20197;-79
2020/12/01 10:43:08;;;;;;;6.70;1.90;;;;;;;;;;5033594;28;20195;-78
2020/12/01 10:45:35;;;;;;;6.03;1.73;;;;;;;;;;5065186;28;20191;-78
2020/12/01 10:48:02;;;;;;;7.77;1.77;;;;;;;;;;5074785;28;20224;-78
2020/12/01 10:50:30;;;;;;;6.53;1.70;;;;;;;;;;5073610;28;20276;-78
2020/12/01 10:52:58;;;;;;;5.23;1.70;;;;;;;;;;5075207;28;20276;-78
2020/12/01 10:55:26;;;;;;;6.23;1.77;;;;;;;;;;5083638;28;20725;-78
2020/12/01 10:57:53;;;;;;;8.03;1.90;;;;;;;;;;5082066;28;20195;-78
2020/12/01 11:00:21;;;;;;;5.87;1.77;;;;;;;;;;5079211;28;20202;-78
2020/12/01 11:02:48;;;;;;;6.60;1.87;;;;;;;;;;5074534;28;20704;-78
2020/12/01 11:05:16;;;;;;;8.73;1.83;;;;;;;;;;5080354;28;20203;-78
2020/12/01 11:07:43;;;;;;;4.77;1.47;;;;;;;;;;5086048;28;20199;-78
2020/12/01 11:10:11;;;;;;;9.37;1.30;;;;;;;;;;5082170;28;20288;-78
2020/12/01 11:12:38;;;;;;;6.53;1.43;;;;;;;;;;5082291;28;20607;-78
2020/12/01 11:15:05;;;;;;;8.57;1.53;;;;;;;;;;5078634;28;20251;-78
2020/12/01 11:17:31;;;;;;;8.83;1.67;;;;;;;;;;5083410;28;20255;-78
2020/12/01 11:19:58;;;;;;;7.63;1.50;;;;;;;;;;5082297;28;20202;-77
2020/12/01 11:22:25;;;;;;;6.23;1.20;;;;;;;;;;5082619;28;20578;-78
2020/12/01 11:24:51;;;;;;;6.53;1.90;;;;;;;;;;5077096;28;20198;-78
2020/12/01 11:27:19;;;;;;;6.63;1.30;;;;;;;;;;5076829;28;20223;-78
2020/12/01 11:29:46;;;;;;;5.70;1.30;;;;;;;;;;5085527;28;20221;-78
2020/12/01 11:32:13;;;;;;;5.90;1.27;;;;;;;;;;5085520;28;20215;-77
2020/12/01 11:34:40;;;;;;;6.93;1.57;;;;;;;;;;5081309;28;20591;-77
2020/12/01 11:37:07;;;;;;;4.93;1.20;;;;;;;;;;5091196;28;20271;-77
2020/12/01 11:39:33;;;;;;;7.47;1.67;;;;;;;;;;5073171;28;20211;-78
2020/12/01 11:42:01;;;;;;;5.03;1.50;;;;;;;;;;5075993;28;20603;-78
2020/12/01 11:44:28;;;;;;;7.80;1.40;;;;;;;;;;5080090;28;20202;-78
2020/12/01 11:46:56;;;;;;;6.53;1.40;;;;;;;;;;5080350;28;20695;-79
2020/12/01 11:49:23;;;;;;;7.07;1.53;;;;;;;;;;5083005;28;20258;-77
2020/12/01 11:51:50;;;;;;;7.37;1.60;;;;;;;;;;5078084;28;20252;-77
2020/12/01 11:54:17;;;;;;;6.87;1.67;;;;;;;;;;5084223;28;20657;-77
2020/12/01 11:56:44;;;;;;;9.77;1.60;;;;;;;;;;5076117;28;20244;-77
2020/12/01 11:59:11;;;;;;;8.07;1.77;;;;;;;;;;5086197;28;20263;-78
2020/12/01 12:01:39;;;;;;;6.70;2.13;;;;;;;;;;5075528;28;20220;-77
2020/12/01 12:04:06;;;;;;;7.60;1.70;;;;;;;;;;5077652;28;20241;-77
2020/12/01 12:06:35;;;;;;;6.57;1.50;;;;;;;;;;5079831;28;20202;-77
2020/12/01 12:09:02;;;;;;;5.30;1.53;;;;;;;;;;5079795;28;20207;-76
2020/12/01 12:11:28;;;;;;;7.47;1.70;;;;;;;;;;5081139;28;20315;-77
2020/12/01 12:13:55;;;;;;;19.23;8.17;;;;;;;;;;5074667;28;20253;-77
2020/12/01 12:16:22;;;;;;;12.27;4.27;;;;;;;;;;5085372;28;20199;-78
2020/12/01 12:18:50;;;;;;;8.43;1.77;;;;;;;;;;5077070;28;20203;-78
2020/12/01 12:21:18;;;;;;;16.47;7.93;;;;;;;;;;5082049;28;20202;-77
2020/12/01 12:23:45;;;;;;;10.73;2.80;;;;;;;;;;5080955;28;20199;-78
2020/12/01 12:26:12;;;;;;;7.83;1.90;;;;;;;;;;5085528;28;20221;-78
2020/12/01 12:28:38;;;;;;;7.80;2.37;;;;;;;;;;5081076;28;20598;-77
2020/12/01 12:31:06;;;;;;;8.00;1.97;;;;;;;;;;5080280;28;20207;-78
2020/12/01 12:33:33;;;;;;;9.53;1.97;;;;;;;;;;5079220;28;20272;-78
2020/12/01 12:36:00;;;;;;;5.67;1.90;;;;;;;;;;5073313;28;20215;-78
2020/12/01 12:38:28;;;;;;;7.43;1.80;;;;;;;;;;5085298;28;20563;-78
2020/12/01 12:40:55;;;;;;;7.67;1.80;;;;;;;;;;5073021;28;20230;-77
2020/12/01 12:43:22;;;;;;;7.20;1.83;;;;;;;;;;5086571;28;20188;-77
2020/12/01 12:45:49;;;;;;;8.27;2.50;;;;;;;;;;5066847;28;20199;-78
2020/12/01 12:48:16;;;;;;;8.47;2.60;;;;;;;;;;5072708;28;20199;-78
2020/12/01 12:50:43;;;;;;;7.97;2.60;;;;;;;;;;5072304;28;20738;-78
2020/12/01 12:53:11;;;;;;;7.97;2.30;;;;;;;;;;5084364;28;20234;-77
2020/12/01 12:55:38;;;;;;;10.70;3.00;;;;;;;;;;5080897;28;20199;-77
2020/12/01 12:58:05;;;;;;;8.47;2.83;;;;;;;;;;5091268;28;20584;-77
2020/12/01 13:00:32;;;;;;;11.73;3.30;;;;;;;;;;5087801;28;20216;-78
2020/12/01 13:02:59;;;;;;;8.57;2.90;;;;;;;;;;5076541;28;20203;-78
2020/12/01 13:05:26;;;;;;;8.60;1.90;;;;;;;;;;5075038;28;20191;-78
2020/12/01 13:07:53;;;;;;;8.97;2.40;;;;;;;;;;5078573;28;20202;-78
2020/12/01 13:10:20;;;;;;;13.13;3.23;;;;;;;;;;5067642;28;20195;-77
2020/12/01 13:12:47;;;;;;;9.80;3.47;;;;;;;;;;5065819;28;20219;-78
2020/12/01 13:15:14;;;;;;;8.73;1.87;;;;;;;;;;5072312;28;20195;-78
2020/12/01 13:17:42;;;;;;;6.40;2.17;;;;;;;;;;5072118;28;20207;-78
2020/12/01 13:20:12;;;;;;;10.67;1.70;;;;;;;;;;5072064;28;20206;-78
2020/12/01 13:22:41;;;;;;;6.63;1.90;;;;;;;;;;5061696;28;20785;-78
2020/12/01 13:25:08;;;;;;;6.93;1.67;;;;;;;;;;5065283;28;20225;-77
2020/12/01 13:27:36;;;;;;;8.00;1.93;;;;;;;;;;5066533;28;20809;-77
2020/12/01 13:30:03;;;;;;;10.33;2.00;;;;;;;;;;5064648;28;20195;-78
2020/12/01 13:32:30;;;;;;;7.10;2.17;;;;;;;;;;5067801;28;20245;-77
2020/12/01 13:34:57;;;;;;;11.53;2.30;;;;;;;;;;5062863;28;20549;-77
2020/12/01 13:37:27;;;;;;;8.53;2.20;;;;;;;;;;5064530;28;20226;-77
2020/12/01 13:39:54;;;;;;;7.33;2.23;;;;;;;;;;5066605;28;20195;-76
2020/12/01 13:42:21;;;;;;;7.87;2.23;;;;;;;;;;5066058;28;20191;-78
2020/12/01 13:44:48;;;;;;;6.37;2.17;;;;;;;;;;5069397;28;20226;-77
2020/12/01 13:47:15;;;;;;;6.67;2.20;;;;;;;;;;5066203;28;20264;-77
2020/12/01 13:49:42;;;;;;;11.70;3.17;;;;;;;;;;5067030;28;20242;-77
2020/12/01 13:52:09;;;;;;;10.17;2.83;;;;;;;;;;5061709;28;20284;-77
2020/12/01 13:54:37;;;;;;;8.90;2.60;;;;;;;;;;5067761;28;20196;-77
2020/12/01 13:57:04;;;;;;;5.47;2.33;;;;;;;;;;5067380;28;20198;-77
2020/12/01 13:59:31;;;;;;;7.13;2.50;;;;;;;;;;5076862;28;20709;-77